createdAt,value
2022-10-23T00:00:50.419Z,8.70
2022-10-23T00:03:16.892Z,8.59
2022-10-23T00:05:43.370Z,8.54
2022-10-23T00:08:09.755Z,8.53
2022-10-23T00:10:36.249Z,8.59
2022-10-23T00:13:02.841Z,8.62
2022-10-23T00:15:29.277Z,8.66
2022-10-23T00:17:55.682Z,8.70
2022-10-23T00:20:22.462Z,8.77
2022-10-23T00:22:48.843Z,8.78
2022-10-23T00:25:16.355Z,8.82
2022-10-23T00:27:43.403Z,8.80
2022-10-23T00:30:10.756Z,8.89
2022-10-23T00:32:37.297Z,8.91
2022-10-23T00:35:04.395Z,8.89
2022-10-23T00:37:30.836Z,8.86
2022-10-23T00:39:57.371Z,8.83
2022-10-23T00:42:24.003Z,8.85
2022-10-23T00:44:50.332Z,8.81
2022-10-23T00:47:17.270Z,8.80
2022-10-23T00:49:43.771Z,8.82
2022-10-23T00:52:12.772Z,8.82
2022-10-23T00:54:42.132Z,8.83
2022-10-23T00:57:13.069Z,8.89
2022-10-23T00:59:40.012Z,8.90
2022-10-23T01:02:06.617Z,8.95
2022-10-23T01:04:33.872Z,8.91
2022-10-23T01:07:22.156Z,8.89
2022-10-23T01:10:15.057Z,8.86
2022-10-23T01:12:47.376Z,8.84
2022-10-23T01:15:43.078Z,8.84
2022-10-23T01:18:12.295Z,8.84
2022-10-23T01:20:48.730Z,8.79
2022-10-23T01:23:52.331Z,8.81
2022-10-23T01:26:33.524Z,8.83
2022-10-23T01:29:14.869Z,8.84
2022-10-23T01:31:56.943Z,8.88
2022-10-23T01:34:30.662Z,8.85
2022-10-23T01:37:01.733Z,8.89
2022-10-23T01:39:35.889Z,8.85
2022-10-23T01:42:11.362Z,8.86
2022-10-23T01:44:45.545Z,8.92
2022-10-23T01:47:14.020Z,8.85
2022-10-23T01:49:53.529Z,8.90
2022-10-23T01:52:22.554Z,8.91
2022-10-23T01:54:53.484Z,8.94
2022-10-23T01:57:22.686Z,8.98
2022-10-23T02:00:01.551Z,8.98
2022-10-23T02:02:30.822Z,8.93
2022-10-23T02:05:03.318Z,8.96
2022-10-23T02:07:30.247Z,8.98
2022-10-23T02:09:57.561Z,9.02
2022-10-23T02:12:53.952Z,9.00
2022-10-23T02:15:37.611Z,8.99
2022-10-23T02:18:30.907Z,9.00
2022-10-23T02:21:28.994Z,8.98
2022-10-23T02:24:07.455Z,8.96
2022-10-23T02:26:42.363Z,8.95
2022-10-23T02:29:24.932Z,8.94
2022-10-23T02:31:51.372Z,8.93
2022-10-23T02:34:19.217Z,8.91
2022-10-23T02:36:46.144Z,8.90
2022-10-23T02:39:12.801Z,8.87
2022-10-23T02:41:46.896Z,8.87
2022-10-23T02:44:40.625Z,8.87
2022-10-23T02:47:21.239Z,8.82
2022-10-23T02:50:06.866Z,8.80
2022-10-23T02:52:58.170Z,8.80
2022-10-23T02:55:30.509Z,8.80
2022-10-23T02:58:04.131Z,8.75
2022-10-23T03:00:33.036Z,8.72
2022-10-23T03:03:05.908Z,8.67
2022-10-23T03:05:36.285Z,8.61
2022-10-23T03:08:05.041Z,8.63
2022-10-23T03:10:31.488Z,8.62
2022-10-23T03:12:57.893Z,8.57
2022-10-23T03:15:25.029Z,8.56
2022-10-23T03:17:52.050Z,8.56
2022-10-23T03:20:18.491Z,8.52
2022-10-23T03:22:45.723Z,8.52
2022-10-23T03:25:12.764Z,8.49
2022-10-23T03:27:39.161Z,8.42
2022-10-23T03:30:09.814Z,8.38
2022-10-23T03:32:38.572Z,8.35
2022-10-23T03:35:05.956Z,8.37
2022-10-23T03:37:32.706Z,8.37
2022-10-23T03:40:00.894Z,8.36
2022-10-23T03:42:30.643Z,8.32
2022-10-23T03:44:57.085Z,8.35
2022-10-23T03:47:23.964Z,8.37
2022-10-23T03:49:50.391Z,8.37
2022-10-23T03:52:16.970Z,8.36
2022-10-23T03:54:43.448Z,8.33
2022-10-23T03:57:10.608Z,8.25
2022-10-23T03:59:37.059Z,8.22
2022-10-23T04:02:05.526Z,8.25
2022-10-23T04:04:32.007Z,8.26
2022-10-23T04:06:59.287Z,8.27
2022-10-23T04:09:26.481Z,8.26
2022-10-23T04:11:52.902Z,8.34
2022-10-23T04:14:19.294Z,8.40
2022-10-23T04:16:46.823Z,8.38
2022-10-23T04:19:13.266Z,8.41
2022-10-23T04:21:40.856Z,8.47
2022-10-23T04:24:07.501Z,8.46
2022-10-23T04:26:34.058Z,8.36
2022-10-23T04:29:00.446Z,8.34
2022-10-23T04:31:28.540Z,8.32
2022-10-23T04:33:55.355Z,8.33
2022-10-23T04:36:28.909Z,8.38
2022-10-23T04:38:58.282Z,8.35
2022-10-23T04:41:24.733Z,8.35
2022-10-23T04:43:51.258Z,8.38
2022-10-23T04:46:17.722Z,8.33
2022-10-23T04:48:46.920Z,8.36
2022-10-23T04:51:46.110Z,8.35
2022-10-23T04:54:36.542Z,8.35
2022-10-23T04:57:20.984Z,8.37
2022-10-23T05:00:07.723Z,8.43
2022-10-23T05:02:48.210Z,8.35
2022-10-23T05:05:17.410Z,8.37
2022-10-23T05:07:56.711Z,8.40
2022-10-23T05:10:38.034Z,8.41
2022-10-23T05:13:11.076Z,8.39
2022-10-23T05:15:39.183Z,8.43
2022-10-23T05:18:13.058Z,8.44
2022-10-23T05:20:40.330Z,8.44
2022-10-23T05:23:11.408Z,8.37
2022-10-23T05:25:38.253Z,8.38
2022-10-23T05:28:13.738Z,8.39
2022-10-23T05:30:41.755Z,8.35
2022-10-23T05:33:10.122Z,8.35
2022-10-23T05:35:42.171Z,8.30
2022-10-23T05:38:09.313Z,8.24
2022-10-23T05:43:14.664Z,8.09
2022-10-23T05:45:50.096Z,8.10
2022-10-23T05:48:35.630Z,8.09
2022-10-23T05:51:22.156Z,8.10
2022-10-23T05:53:56.861Z,8.07
2022-10-23T05:56:41.433Z,7.96
2022-10-23T05:59:10.700Z,7.96
2022-10-23T06:01:56.153Z,7.85
2022-10-23T06:04:38.761Z,7.80
2022-10-23T06:07:32.327Z,7.82
2022-10-23T06:10:05.127Z,7.82
2022-10-23T06:12:34.238Z,7.79
2022-10-23T06:15:00.863Z,7.75
2022-10-23T06:17:43.653Z,7.74
2022-10-23T06:20:10.937Z,7.77
2022-10-23T06:22:40.207Z,7.81
2022-10-23T06:25:22.250Z,7.82
2022-10-23T06:27:50.899Z,7.84
2022-10-23T06:30:17.753Z,7.85
2022-10-23T06:32:46.436Z,7.86
2022-10-23T06:35:14.551Z,7.87
2022-10-23T06:37:41.050Z,7.93
2022-10-23T06:40:30.203Z,8.00
2022-10-23T06:43:03.550Z,8.04
2022-10-23T06:45:40.621Z,8.02
2022-10-23T06:48:13.345Z,8.09
2022-10-23T06:50:56.095Z,8.15
2022-10-23T06:53:33.482Z,8.19
2022-10-23T06:56:08.349Z,8.18
2022-10-23T06:58:38.158Z,8.18
2022-10-23T07:01:16.238Z,8.31
2022-10-23T07:03:44.287Z,8.40
2022-10-23T07:06:11.745Z,8.42
2022-10-23T07:08:38.942Z,8.47
2022-10-23T07:11:20.637Z,8.54
2022-10-23T07:13:48.812Z,8.63
2022-10-23T07:16:22.592Z,8.74
2022-10-23T07:18:58.667Z,8.81
2022-10-23T07:21:35.565Z,8.89
2022-10-23T07:24:17.556Z,8.86
2022-10-23T07:26:44.774Z,8.98
2022-10-23T07:29:12.567Z,9.15
2022-10-23T07:31:39.377Z,9.37
2022-10-23T07:34:40.998Z,9.55
2022-10-23T07:37:29.977Z,9.75
2022-10-23T07:39:58.750Z,9.84
2022-10-23T07:42:25.529Z,9.90
2022-10-23T07:44:52.029Z,9.94
2022-10-23T07:47:18.469Z,9.96
2022-10-23T07:49:49.055Z,10.00
2022-10-23T07:52:15.799Z,10.05
2022-10-23T07:55:18.088Z,10.12
2022-10-23T07:57:48.729Z,10.18
2022-10-23T08:00:25.624Z,10.29
2022-10-23T08:03:00.124Z,10.40
2022-10-23T08:05:26.893Z,10.48
2022-10-23T08:07:58.412Z,10.56
2022-10-23T08:10:24.894Z,10.64
2022-10-23T08:12:51.911Z,10.70
2022-10-23T08:15:21.562Z,10.82
2022-10-23T08:17:56.402Z,10.94
2022-10-23T08:20:39.905Z,11.06
2022-10-23T08:23:07.459Z,11.17
2022-10-23T08:25:35.949Z,11.31
2022-10-23T08:28:05.490Z,11.43
2022-10-23T08:30:38.878Z,11.55
2022-10-23T08:33:07.223Z,11.67
2022-10-23T08:35:39.882Z,11.81
2022-10-23T08:38:07.772Z,11.99
2022-10-23T08:40:45.300Z,12.16
2022-10-23T08:43:30.099Z,12.33
2022-10-23T08:46:15.290Z,12.51
2022-10-23T08:49:17.651Z,12.75
2022-10-23T08:51:53.570Z,12.92
2022-10-23T08:54:33.034Z,13.08
2022-10-23T08:57:14.710Z,13.24
2022-10-23T08:59:47.770Z,13.38
2022-10-23T09:02:24.183Z,13.56
2022-10-23T09:04:53.617Z,13.69
2022-10-23T09:07:26.490Z,13.82
2022-10-23T09:10:07.682Z,13.98
2022-10-23T09:12:34.069Z,14.08
2022-10-23T09:15:26.124Z,14.23
2022-10-23T09:18:01.965Z,14.36
2022-10-23T09:20:35.739Z,14.55
2022-10-23T09:23:07.776Z,14.73
2022-10-23T09:25:38.274Z,14.87
2022-10-23T09:28:05.772Z,15.03
2022-10-23T09:30:41.970Z,15.17
2022-10-23T09:33:16.591Z,15.27
2022-10-23T09:35:59.954Z,15.37
2022-10-23T09:38:27.570Z,15.47
2022-10-23T09:40:54.077Z,15.54
2022-10-23T09:43:23.284Z,15.64
2022-10-23T09:45:58.914Z,15.78
2022-10-23T09:48:26.143Z,16.03
2022-10-23T09:50:59.790Z,16.15
2022-10-23T09:53:34.226Z,16.20
2022-10-23T09:56:11.616Z,16.28
2022-10-23T09:58:54.442Z,16.35
2022-10-23T10:01:25.668Z,16.46
2022-10-23T10:03:55.513Z,16.55
2022-10-23T10:06:33.265Z,16.65
2022-10-23T10:09:03.750Z,16.80
2022-10-23T10:11:51.631Z,16.86
2022-10-23T10:14:34.779Z,16.93
2022-10-23T10:17:19.749Z,16.99
2022-10-23T10:19:56.597Z,17.10
2022-10-23T10:22:39.365Z,17.28
2022-10-23T10:25:24.967Z,17.35
2022-10-23T10:28:16.337Z,17.34
2022-10-23T10:31:17.749Z,17.39
2022-10-23T10:33:52.838Z,17.35
2022-10-23T10:36:34.493Z,17.37
2022-10-23T10:39:03.722Z,17.53
2022-10-23T10:41:37.605Z,17.64
2022-10-23T10:44:32.352Z,17.83
2022-10-23T10:47:09.784Z,18.01
2022-10-23T10:49:46.233Z,18.09
2022-10-23T10:52:34.224Z,18.14
2022-10-23T10:55:25.296Z,18.19
2022-10-23T10:58:03.779Z,18.25
2022-10-23T11:00:33.329Z,18.31
2022-10-23T11:03:21.811Z,18.37
2022-10-23T11:05:50.535Z,18.57
2022-10-23T11:08:27.814Z,18.75
2022-10-23T11:10:58.727Z,18.91
2022-10-23T11:13:40.410Z,18.95
2022-10-23T11:16:12.903Z,18.96
2022-10-23T11:18:43.006Z,19.06
2022-10-23T11:21:18.755Z,19.13
2022-10-23T11:23:57.587Z,19.19
2022-10-23T11:26:35.191Z,19.28
2022-10-23T11:29:20.737Z,19.46
2022-10-23T11:32:02.181Z,19.62
2022-10-23T11:34:50.780Z,19.99
2022-10-23T11:37:19.357Z,20.26
2022-10-23T11:40:07.518Z,20.21
2022-10-23T11:42:39.991Z,20.12
2022-10-23T11:45:26.252Z,20.10
2022-10-23T11:48:16.591Z,20.20
2022-10-23T11:50:46.102Z,20.31
2022-10-23T11:53:48.110Z,20.28
2022-10-23T11:56:19.393Z,20.26
2022-10-23T11:58:49.663Z,20.22
2022-10-23T12:01:29.835Z,20.19
2022-10-23T12:04:14.557Z,20.22
2022-10-23T12:06:51.092Z,20.22
2022-10-23T12:09:26.287Z,20.30
2022-10-23T12:12:15.122Z,20.55
2022-10-23T12:14:49.973Z,20.82
2022-10-23T12:17:22.587Z,21.06
2022-10-23T12:19:55.903Z,21.31
2022-10-23T12:22:28.228Z,21.45
2022-10-23T12:25:07.886Z,21.53
2022-10-23T12:27:45.810Z,21.65
2022-10-23T12:30:22.371Z,21.81
2022-10-23T12:33:13.146Z,21.92
2022-10-23T12:35:54.137Z,22.01
2022-10-23T12:38:26.704Z,21.99
2022-10-23T12:41:11.361Z,22.06
2022-10-23T12:43:38.956Z,22.05
2022-10-23T12:46:20.147Z,21.91
2022-10-23T12:48:56.501Z,21.57
2022-10-23T12:51:32.983Z,21.29
2022-10-23T12:53:59.947Z,21.44
2022-10-23T12:56:29.541Z,21.28
2022-10-23T12:59:02.387Z,21.20
2022-10-23T13:01:31.870Z,21.27
2022-10-23T13:06:50.029Z,21.02
2022-10-23T13:09:39.386Z,20.89
2022-10-23T13:12:25.236Z,20.59
2022-10-23T13:14:56.191Z,20.42
2022-10-23T13:17:34.110Z,20.37
2022-10-23T13:20:24.429Z,20.39
2022-10-23T13:23:00.566Z,20.32
2022-10-23T13:25:27.636Z,20.21
2022-10-23T13:28:08.366Z,20.21
2022-10-23T13:30:38.527Z,20.19
2022-10-23T13:33:41.344Z,20.37
2022-10-23T13:36:13.806Z,20.62
2022-10-23T13:38:41.571Z,20.69
2022-10-23T13:41:15.846Z,20.61
2022-10-23T13:43:43.338Z,20.65
2022-10-23T13:46:21.215Z,20.83
2022-10-23T13:48:48.499Z,21.57
2022-10-23T13:51:19.662Z,21.84
2022-10-23T13:53:46.343Z,22.11
2022-10-23T13:56:13.859Z,22.17
2022-10-23T13:58:40.247Z,22.24
2022-10-23T14:01:07.371Z,22.18
2022-10-23T14:03:33.823Z,22.03
2022-10-23T14:06:01.274Z,21.93
2022-10-23T14:08:27.662Z,21.80
2022-10-23T14:10:54.045Z,21.78
2022-10-23T14:13:20.438Z,22.27
2022-10-23T14:15:55.830Z,22.76
2022-10-23T14:18:22.382Z,23.00
2022-10-23T14:20:48.920Z,23.54
2022-10-23T14:23:15.373Z,25.46
2022-10-23T14:25:41.770Z,25.55
2022-10-23T14:28:08.189Z,24.57
2022-10-23T14:30:37.154Z,24.22
2022-10-23T14:33:04.479Z,24.08
2022-10-23T14:35:30.928Z,24.47
2022-10-23T14:37:58.441Z,24.44
2022-10-23T14:40:25.368Z,24.41
2022-10-23T14:42:51.753Z,24.21
2022-10-23T14:45:18.193Z,24.16
2022-10-23T14:47:44.835Z,23.85
2022-10-23T14:50:12.086Z,23.07
2022-10-23T14:52:38.473Z,23.05
2022-10-23T14:55:05.191Z,22.54
2022-10-23T14:57:31.565Z,22.05
2022-10-23T14:59:57.957Z,21.70
2022-10-23T15:02:24.375Z,21.31
2022-10-23T15:04:50.783Z,21.03
2022-10-23T15:07:17.315Z,20.77
2022-10-23T15:09:43.693Z,20.51
2022-10-23T15:12:10.093Z,20.31
2022-10-23T15:14:36.503Z,20.24
2022-10-23T15:17:03.685Z,20.18
2022-10-23T15:19:30.160Z,20.13
2022-10-23T15:21:56.537Z,20.10
2022-10-23T15:24:23.064Z,20.03
2022-10-23T15:26:51.417Z,19.94
2022-10-23T15:29:19.246Z,19.88
2022-10-23T15:31:53.651Z,19.80
2022-10-23T15:34:24.004Z,19.72
2022-10-23T15:36:51.315Z,19.70
2022-10-23T15:39:21.606Z,19.57
2022-10-23T15:41:51.458Z,19.39
2022-10-23T15:44:20.337Z,19.28
2022-10-23T15:46:48.257Z,19.09
2022-10-23T15:49:15.389Z,18.93
2022-10-23T15:51:42.831Z,18.78
2022-10-23T15:54:16.265Z,18.62
2022-10-23T15:56:43.490Z,18.52
2022-10-23T15:59:09.987Z,18.41
2022-10-23T16:01:37.566Z,18.30
2022-10-23T16:04:04.276Z,18.16
2022-10-23T16:06:31.150Z,18.09
2022-10-23T16:08:58.054Z,18.05
2022-10-23T16:11:27.289Z,18.02
2022-10-23T16:13:54.950Z,17.95
2022-10-23T16:16:21.384Z,17.89
2022-10-23T16:18:48.567Z,17.84
2022-10-23T16:21:25.911Z,17.79
2022-10-23T16:23:55.011Z,17.78
2022-10-23T16:26:22.360Z,17.68
2022-10-23T16:28:56.101Z,17.58
2022-10-23T16:31:23.435Z,17.57
2022-10-23T16:33:51.117Z,17.56
2022-10-23T16:36:18.674Z,17.48
2022-10-23T16:39:19.572Z,17.43
2022-10-23T16:42:05.257Z,17.42
2022-10-23T16:44:56.693Z,17.25
2022-10-23T16:47:23.151Z,17.22
2022-10-23T16:49:49.571Z,17.20
2022-10-23T16:52:16.183Z,17.17
2022-10-23T16:54:43.437Z,17.12
2022-10-23T16:57:09.813Z,16.99
2022-10-23T16:59:36.906Z,16.95
2022-10-23T17:02:03.438Z,16.94
2022-10-23T17:04:29.923Z,16.91
2022-10-23T17:06:56.463Z,16.79
2022-10-23T17:09:23.550Z,16.69
2022-10-23T17:11:52.957Z,16.65
2022-10-23T17:14:21.074Z,16.71
2022-10-23T17:16:50.099Z,16.64
2022-10-23T17:22:11.072Z,16.59
2022-10-23T17:24:38.592Z,16.44
2022-10-23T17:27:05.608Z,16.49
2022-10-23T17:29:32.046Z,16.41
2022-10-23T17:31:58.917Z,16.40
2022-10-23T17:34:26.044Z,16.39
2022-10-23T17:36:54.509Z,16.35
2022-10-23T17:39:24.970Z,16.15
2022-10-23T17:41:51.746Z,16.06
2022-10-23T17:44:18.169Z,16.07
2022-10-23T17:46:44.644Z,16.07
2022-10-23T17:49:11.915Z,16.03
2022-10-23T17:51:38.395Z,16.00
2022-10-23T17:54:07.865Z,15.92
2022-10-23T17:56:36.416Z,15.89
2022-10-23T17:59:07.274Z,16.04
2022-10-23T18:01:34.148Z,15.97
2022-10-23T18:04:02.773Z,16.04
2022-10-23T18:06:33.109Z,16.14
2022-10-23T18:09:01.335Z,16.31
2022-10-23T18:11:37.356Z,16.43
2022-10-23T18:14:04.347Z,16.97
2022-10-23T18:16:30.787Z,17.16
2022-10-23T18:19:00.122Z,17.25
2022-10-23T18:21:27.063Z,17.33
2022-10-23T18:23:53.717Z,17.46
2022-10-23T18:26:23.090Z,17.60
2022-10-23T18:28:52.046Z,17.64
2022-10-23T18:31:19.898Z,17.57
2022-10-23T18:33:47.263Z,17.54
2022-10-23T18:36:24.973Z,17.54
2022-10-23T18:38:51.613Z,17.64
2022-10-23T18:41:19.582Z,17.64
2022-10-23T18:43:46.158Z,17.63
2022-10-23T18:46:13.490Z,17.69
2022-10-23T18:48:40.771Z,17.63
2022-10-23T18:51:32.161Z,17.67
2022-10-23T18:54:01.048Z,17.63
2022-10-23T18:56:27.960Z,17.59
2022-10-23T18:58:56.896Z,17.58
2022-10-23T19:01:24.451Z,17.47
2022-10-23T19:03:51.048Z,17.38
2022-10-23T19:06:17.705Z,17.40
2022-10-23T19:08:44.418Z,17.39
2022-10-23T19:11:12.331Z,17.36
2022-10-23T19:13:40.276Z,17.32
2022-10-23T19:16:12.286Z,17.33
2022-10-23T19:18:42.362Z,17.30
2022-10-23T19:21:09.244Z,17.25
2022-10-23T19:23:37.893Z,17.22
2022-10-23T19:26:08.794Z,17.20
2022-10-23T19:28:37.853Z,17.20
2022-10-23T19:31:04.828Z,17.23
2022-10-23T19:33:32.491Z,17.20
2022-10-23T19:36:01.249Z,17.15
2022-10-23T19:38:31.769Z,17.07
2022-10-23T19:40:58.166Z,17.02
2022-10-23T19:43:24.571Z,16.92
2022-10-23T19:45:50.972Z,16.93
2022-10-23T19:48:17.393Z,16.87
2022-10-23T19:50:44.175Z,16.75
2022-10-23T19:53:10.645Z,16.74
2022-10-23T19:55:37.150Z,16.74
2022-10-23T19:58:03.549Z,16.74
2022-10-23T20:00:30.146Z,16.68
2022-10-23T20:02:56.539Z,16.68
2022-10-23T20:05:22.964Z,16.74
2022-10-23T20:07:50.646Z,16.72
2022-10-23T20:10:17.174Z,16.67
2022-10-23T20:12:47.497Z,16.67
2022-10-23T20:15:23.454Z,16.71
2022-10-23T20:17:49.827Z,16.68
2022-10-23T20:20:16.354Z,16.62
2022-10-23T20:22:44.103Z,16.61
2022-10-23T20:25:10.752Z,16.55
2022-10-23T20:30:09.116Z,16.54
2022-10-23T20:32:35.560Z,16.57
2022-10-23T20:35:01.947Z,16.56
2022-10-23T20:37:28.346Z,16.55
2022-10-23T20:39:55.302Z,16.47
2022-10-23T20:42:21.897Z,16.51
2022-10-23T20:44:48.272Z,16.47
2022-10-23T20:47:14.703Z,16.51
2022-10-23T20:49:41.079Z,16.51
2022-10-23T20:52:07.483Z,16.50
2022-10-23T20:54:35.833Z,16.53
2022-10-23T20:57:02.223Z,16.52
2022-10-23T20:59:28.706Z,16.46
2022-10-23T21:01:56.241Z,16.39
2022-10-23T21:04:26.524Z,16.42
2022-10-23T21:07:09.406Z,16.44
2022-10-23T21:09:37.647Z,16.44
2022-10-23T21:12:04.412Z,16.40
2022-10-23T21:14:30.899Z,16.38
2022-10-23T21:16:57.300Z,16.43
2022-10-23T21:19:23.738Z,16.42
2022-10-23T21:21:50.162Z,16.41
2022-10-23T21:24:17.331Z,16.40
2022-10-23T21:26:44.613Z,16.37
2022-10-23T21:29:19.693Z,16.35
2022-10-23T21:31:59.554Z,16.31
2022-10-23T21:34:27.079Z,16.33
2022-10-23T21:37:12.418Z,16.30
2022-10-23T21:39:40.625Z,16.32
2022-10-23T21:42:07.084Z,16.33
2022-10-23T21:44:33.590Z,16.31
2022-10-23T21:46:59.998Z,16.25
2022-10-23T21:49:26.473Z,16.30
2022-10-23T21:51:54.653Z,16.26
2022-10-23T21:54:21.060Z,16.31
2022-10-23T21:56:51.033Z,16.34
2022-10-23T21:59:24.057Z,16.33
2022-10-23T22:01:51.526Z,16.31
2022-10-23T22:04:19.336Z,16.29
2022-10-23T22:06:47.659Z,16.33
2022-10-23T22:09:17.322Z,16.31
2022-10-23T22:11:43.743Z,16.34
2022-10-23T22:14:10.593Z,16.33
2022-10-23T22:16:37.195Z,16.29
2022-10-23T22:19:03.846Z,16.32
2022-10-23T22:21:30.910Z,16.31
2022-10-23T22:23:58.917Z,16.34
2022-10-23T22:26:28.793Z,16.36
2022-10-23T22:28:57.405Z,16.36
2022-10-23T22:31:27.537Z,16.33
2022-10-23T22:33:55.131Z,16.35
2022-10-23T22:36:21.769Z,16.38
2022-10-23T22:38:48.542Z,16.39
2022-10-23T22:41:15.550Z,16.44
2022-10-23T22:43:41.933Z,16.43
2022-10-23T22:46:17.126Z,16.42
2022-10-23T22:48:43.960Z,16.43
2022-10-23T22:51:15.834Z,16.48
2022-10-23T22:53:43.781Z,16.45
2022-10-23T22:56:13.030Z,16.42
2022-10-23T22:58:39.670Z,16.40
2022-10-23T23:01:14.462Z,16.42
2022-10-23T23:03:41.236Z,16.45
2022-10-23T23:06:09.267Z,16.49
2022-10-23T23:08:37.505Z,16.50
2022-10-23T23:11:05.304Z,16.47
2022-10-23T23:13:32.148Z,16.44
2022-10-23T23:15:58.543Z,16.43
2022-10-23T23:18:25.718Z,16.38
2022-10-23T23:20:52.108Z,16.36
2022-10-23T23:23:18.949Z,16.39
2022-10-23T23:25:49.207Z,16.37
2022-10-23T23:28:17.699Z,16.37
2022-10-23T23:33:19.282Z,16.33
2022-10-23T23:35:46.698Z,16.34
2022-10-23T23:38:13.205Z,16.33
2022-10-23T23:40:40.201Z,16.29
2022-10-23T23:43:06.851Z,16.29
2022-10-23T23:45:33.277Z,16.25
2022-10-23T23:47:59.698Z,16.26
2022-10-23T23:50:27.831Z,16.23
2022-10-23T23:52:54.239Z,16.24
2022-10-23T23:55:20.650Z,16.22
2022-10-23T23:57:47.347Z,16.14
